Detalii statie CEREAMIN SMEENI [00001CFD]

Toti senzorii

Date Temperatura solului [C]Precipitatii [mm]Voltaj baterie [mV]Leaf Wetness [Min]HC Air temperature [C]HC Relative humidity [%]Punctul de roua [C]
medieminmaxsumaultimatimpmedieminmaxmediemediemin
2019-02-21 00:00:00 3.9 3.8 4.1 0 6922 5.95 5.78 6.18 80.19 2.6 2.4
2019-02-21 01:00:00 3.8 3.7 3.9 0 6914 5.36 4.87 5.77 83.51 2.6 2.2
2019-02-21 02:00:00 3.7 3.6 3.9 0 6914 4 2.97 5.05 84.79 1.5 0.6
2019-02-21 03:00:00 3.5 3.5 3.7 0 6904 4.1 3.52 4.94 77.67 0.4 0.2
2019-02-21 04:00:00 3.4 3.4 3.6 0 6894 4.26 3.78 4.69 77.17 0.4 0.3
2019-02-21 05:00:00 3.3 3.2 3.4 0 6884 3.56 2.84 4.06 83.84 0.9 0.7
2019-02-21 06:00:00 3.2 3.1 3.3 0 6884 2.68 1.94 4.47 91.55 1.2 0.7
2019-02-21 07:00:00 3 2.9 3.1 0 6874 3.38 1.91 4.73 79.96 0.1 -0.7
2019-02-21 08:00:00 2.9 2.8 3 0 6952 2.99 2.4 4.05 78.08 -0.5 -0.9
2019-02-21 09:00:00 2.8 2.7 2.9 0 7304 4.78 3.26 7.49 71.67 0 -0.4
2019-02-21 10:00:00 2.8 2.7 3 0 7304 9.31 7.79 10.28 46.84 -1.7 -3.4
2019-02-21 11:00:00 3 2.8 3.2 0 7304 10.2 9.84 10.58 38.67 -3.4 -3.8
2019-02-21 12:00:00 3.2 3.1 3.4 0 7304 11.24 10.47 12.64 34.66 -3.9 -4.4
2019-02-21 13:00:00 3.5 3.2 3.9 0 7294 12.92 12.54 13.76 29.85 -4.3 -4.9
2019-02-21 14:00:00 4.3 3.9 4.7 0 7304 13.23 12.8 13.8 32.05 -3.2 -4.3
2019-02-21 15:00:00 5 4.6 5.2 0 7294 12.12 11.8 12.76 38.27 -1.7 -2.6
2019-02-21 16:00:00 5.2 5.1 5.5 0 7216 11.25 10.51 11.8 41.21 -1.5 -3.8
2019-02-21 17:00:00 5.1 5 5.2 0 7148 10.25 9.97 10.51 37.09 -3.8 -4.4
2019-02-21 18:00:00 5 4.9 5.2 0 7060 8.89 8.2 9.72 38.44 -4.5 -4.9
2019-02-21 19:00:00 4.8 4.7 5 0 7000 7.04 6.55 7.97 43.73 -4.5 -4.8
2019-02-21 20:00:00 4.5 4.3 4.7 0 6962 5.77 3.92 6.89 46.99 -4.7 -5.2
2019-02-21 21:00:00 4.2 4.1 4.5 0 6942 4.15 3.16 4.78 51.49 -5 -5.3
2019-02-21 22:00:00 3.9 3.8 4.2 0 6922 4.28 2.78 5.87 53.65 -4.3 -5.1
2019-02-21 23:00:00 3.7 3.6 3.8 0 6914 4.49 3.74 5.39 52.54 -4.4 -4.7
2019-02-22 00:00:00 3.4 3.4 3.6 0 6904 3.9 2.99 4.71 56.15 -4 -4.7
2019-02-22 01:00:00 3.2 3.1 3.4 0 6894 2.92 2.43 3.61 61.41 -3.8 -4.2
2019-02-22 02:00:00 3.1 3 3.3 0 6884 2.06 1.7 2.72 67.11 -3.4 -3.7
2019-02-22 03:00:00 2.9 2.8 3.1 0 6874 1.72 1.37 2.05 69.18 -3.4 -3.6
2019-02-22 04:00:00 2.7 2.7 2.9 0 6864 1.28 0.8 1.65 72.8 -3 -3.3
2019-02-22 05:00:00 2.6 2.5 2.8 0 6864 0.79 0.49 1.03 74.69 -3.2 -3.3
2019-02-22 06:00:00 2.4 2.4 2.5 0 6854 0.48 0.16 0.97 78.89 -2.7 -3.1
2019-02-22 07:00:00 2.3 2.2 2.4 0 6854 0.75 0.58 0.86 80.16 -2.2 -2.5
2019-02-22 08:00:00 2.2 2.2 2.3 0 6854 1.01 0.86 1.26 79.79 -2 -2.4
2019-02-22 09:00:00 2.3 2.3 2.4 0 6884 2.18 1.46 2.63 76.13 -1.6 -1.9
2019-02-22 10:00:00 2.4 2.4 2.5 0 6922 3.32 2.58 4.13 80.06 0.1 -1
2019-02-22 11:00:00 2.5 2.5 2.7 1 6972 4.25 4.14 4.36 92.51 3 1.5
2019-02-22 12:00:00 2.8 2.7 3 1 7158 4.66 4.29 5.16 100 4.6 4.2
2019-02-22 13:00:00 3.1 2.9 3.4 0 7176 4.53 4.33 4.71 100 4.5 4.3
2019-02-22 14:00:00 3.3 3.2 3.6 0.2 7108 4.33 4.24 4.45 100 4.2 4.2
2019-02-22 15:00:00 3.5 3.4 3.6 0.4 7080 4.36 4.24 4.53 100 4.3 4.2
2019-02-22 16:00:00 3.5 3.4 3.6 0.4 7088 2.35 1.22 4.47 99.95 2.2 1.1
2019-02-22 17:00:00 3.4 3.4 3.6 0 7010 0.39 -0.24 1.11 92.62 -0.6 -1.1
2019-02-22 18:00:00 3.3 3.2 3.4 0 6952 -0.78 -0.99 -0.48 85.62 -2.8 -3.2
2019-02-22 19:00:00 3 2.9 3.2 0 6894 -1.27 -1.64 -1.02 90.72 -2.5 -2.8
2019-02-22 20:00:00 2.7 2.5 2.9 0 6874 -2.1 -2.34 -1.91 86.54 -3.9 -4.6
2019-02-22 21:00:00 2.5 2.3 2.7 0 6854 -2.17 -2.37 -2 65.32 -7.7 -8.6
2019-02-22 22:00:00 2.3 2.2 2.4 0.2 6844 -2.6 -2.82 -2.39 61.08 -9 -9.6
2019-02-22 23:00:00 2 1.7 2.2 0 6834 -2.9 -2.96 -2.85 59.16 -9.7 -10.1